createdAt,value
2022-12-08T00:00:08.761Z,100
2022-12-08T00:01:23.075Z,100
2022-12-08T00:02:37.350Z,100
2022-12-08T00:03:51.636Z,100
2022-12-08T00:05:06.056Z,100
2022-12-08T00:06:20.377Z,100
2022-12-08T00:07:34.653Z,100
2022-12-08T00:08:48.930Z,100
2022-12-08T00:10:03.351Z,100
2022-12-08T00:11:17.661Z,100
2022-12-08T00:12:31.943Z,100
2022-12-08T00:13:46.229Z,100
2022-12-08T00:15:00.628Z,100
2022-12-08T00:16:14.960Z,100
2022-12-08T00:17:29.241Z,100
2022-12-08T00:18:43.513Z,100
2022-12-08T00:19:57.931Z,100
2022-12-08T00:21:12.257Z,100
2022-12-08T00:22:26.529Z,100
2022-12-08T00:23:40.876Z,100
2022-12-08T00:24:55.235Z,100
2022-12-08T00:26:09.514Z,100
2022-12-08T00:28:37.091Z,100
2022-12-08T00:29:51.450Z,100
2022-12-08T00:31:05.770Z,100
2022-12-08T00:32:20.049Z,100
2022-12-08T00:33:34.328Z,100
2022-12-08T00:34:48.742Z,100
2022-12-08T00:36:02.986Z,100
2022-12-08T00:37:17.261Z,100
2022-12-08T00:38:31.540Z,100
2022-12-08T00:39:45.948Z,100
2022-12-08T00:41:00.202Z,100
2022-12-08T00:42:14.481Z,100
2022-12-08T00:43:28.759Z,100
2022-12-08T00:44:43.158Z,100
2022-12-08T00:45:57.492Z,100
2022-12-08T00:47:11.775Z,100
2022-12-08T00:48:26.052Z,100
2022-12-08T00:49:40.000Z,100
2022-12-08T00:50:54.780Z,100
2022-12-08T00:52:09.072Z,100
2022-12-08T00:53:23.348Z,100
2022-12-08T00:54:37.748Z,100
2022-12-08T00:55:52.087Z,100
2022-12-08T00:57:06.366Z,100
2022-12-08T00:58:20.742Z,100
2022-12-08T00:59:34.127Z,100
2022-12-08T01:00:48.458Z,100
2022-12-08T01:02:02.813Z,100
2022-12-08T01:03:17.142Z,100
2022-12-08T01:04:31.485Z,100
2022-12-08T01:05:45.900Z,100
2022-12-08T01:08:14.561Z,100
2022-12-08T01:09:27.921Z,100
2022-12-08T01:10:42.329Z,100
2022-12-08T01:11:56.639Z,100
2022-12-08T01:13:10.933Z,100
2022-12-08T01:14:25.219Z,100
2022-12-08T01:15:39.621Z,100
2022-12-08T01:16:53.932Z,100
2022-12-08T01:18:08.230Z,100
2022-12-08T01:19:22.494Z,100
2022-12-08T01:20:36.872Z,100
2022-12-08T01:21:51.110Z,100
2022-12-08T01:23:05.328Z,100
2022-12-08T01:24:19.666Z,100
2022-12-08T01:25:33.941Z,100
2022-12-08T01:26:48.359Z,100
2022-12-08T01:28:02.601Z,100
2022-12-08T01:29:16.830Z,100
2022-12-08T01:30:31.158Z,100
2022-12-08T01:31:45.400Z,100
2022-12-08T01:32:59.738Z,100
2022-12-08T01:34:14.069Z,100
2022-12-08T01:36:42.627Z,100
2022-12-08T01:37:57.048Z,100
2022-12-08T01:39:11.371Z,100
2022-12-08T01:40:25.699Z,100
2022-12-08T01:41:39.089Z,100
2022-12-08T01:42:53.424Z,100
2022-12-08T01:44:07.766Z,100
2022-12-08T01:45:21.126Z,100
2022-12-08T01:46:35.518Z,100
2022-12-08T01:47:49.850Z,100
2022-12-08T01:49:04.137Z,100
2022-12-08T01:50:18.410Z,100
2022-12-08T01:51:32.820Z,100
2022-12-08T01:52:47.150Z,100
2022-12-08T01:54:01.421Z,100
2022-12-08T01:55:15.700Z,100
2022-12-08T01:56:30.117Z,100
2022-12-08T01:57:44.434Z,100
2022-12-08T01:58:58.711Z,100
2022-12-08T02:00:12.998Z,100
2022-12-08T02:01:27.411Z,100
2022-12-08T02:02:41.728Z,100
2022-12-08T02:03:56.015Z,100
2022-12-08T02:05:10.296Z,100
2022-12-08T02:06:24.704Z,100
2022-12-08T02:07:39.020Z,100
2022-12-08T02:08:53.312Z,100
2022-12-08T02:10:07.593Z,100
2022-12-08T02:11:21.995Z,100
2022-12-08T02:12:36.312Z,100
2022-12-08T02:13:50.598Z,100
2022-12-08T02:15:04.877Z,100
2022-12-08T02:16:19.352Z,100
2022-12-08T02:17:33.686Z,100
2022-12-08T02:18:47.026Z,100
2022-12-08T02:21:15.722Z,100
2022-12-08T02:22:30.051Z,100
2022-12-08T02:23:44.327Z,100
2022-12-08T02:24:58.605Z,100
2022-12-08T02:26:13.023Z,100
2022-12-08T02:27:27.339Z,100
2022-12-08T02:28:41.616Z,100
2022-12-08T02:29:55.899Z,100
2022-12-08T02:31:10.299Z,100
2022-12-08T02:32:24.635Z,100
2022-12-08T02:33:38.921Z,100
2022-12-08T02:34:53.201Z,100
2022-12-08T02:37:21.925Z,100
2022-12-08T02:38:36.207Z,100
2022-12-08T02:39:50.492Z,100
2022-12-08T02:41:04.887Z,100
2022-12-08T02:43:33.500Z,100
2022-12-08T02:44:47.788Z,100
2022-12-08T02:46:02.183Z,100
2022-12-08T02:47:16.514Z,100
2022-12-08T02:48:30.802Z,100
2022-12-08T02:49:45.142Z,100
2022-12-08T02:50:59.540Z,100
2022-12-08T02:52:13.885Z,100
2022-12-08T02:53:27.288Z,100
2022-12-08T02:54:40.663Z,100
2022-12-08T02:55:55.014Z,100
2022-12-08T02:57:08.353Z,100
2022-12-08T02:58:22.638Z,100
2022-12-08T02:59:37.041Z,100
2022-12-08T03:00:51.361Z,100
2022-12-08T03:02:05.650Z,100
2022-12-08T03:03:19.937Z,100
2022-12-08T03:04:34.331Z,100
2022-12-08T03:05:48.671Z,100
2022-12-08T03:07:02.952Z,100
2022-12-08T03:09:31.632Z,100
2022-12-08T03:10:45.949Z,100
2022-12-08T03:12:00.244Z,100
2022-12-08T03:13:14.527Z,100
2022-12-08T03:14:28.927Z,100
2022-12-08T03:15:43.257Z,100
2022-12-08T03:16:57.539Z,100
2022-12-08T03:18:11.823Z,100
2022-12-08T03:19:26.212Z,100
2022-12-08T03:20:40.540Z,100
2022-12-08T03:21:54.832Z,100
2022-12-08T03:23:09.117Z,100
2022-12-08T03:24:23.517Z,100
2022-12-08T03:25:37.833Z,100
2022-12-08T03:26:52.115Z,100
2022-12-08T03:29:20.874Z,100
2022-12-08T03:30:35.210Z,100
2022-12-08T03:31:49.533Z,100
2022-12-08T03:33:02.941Z,100
2022-12-08T03:34:17.358Z,100
2022-12-08T03:35:31.694Z,100
2022-12-08T03:36:45.051Z,100
2022-12-08T03:37:59.332Z,100
2022-12-08T03:39:13.722Z,100
2022-12-08T03:40:28.052Z,100
2022-12-08T03:41:42.326Z,100
2022-12-08T03:42:56.626Z,100
2022-12-08T03:44:11.031Z,100
2022-12-08T03:45:25.357Z,100
2022-12-08T03:46:39.630Z,100
2022-12-08T03:49:08.324Z,100
2022-12-08T03:50:22.644Z,100
2022-12-08T03:51:36.916Z,100
2022-12-08T03:52:51.197Z,100
2022-12-08T03:54:05.617Z,100
2022-12-08T03:55:19.939Z,100
2022-12-08T03:56:34.208Z,100
2022-12-08T03:57:48.498Z,100
2022-12-08T03:59:02.895Z,100
2022-12-08T04:00:17.226Z,100
2022-12-08T04:01:31.500Z,100
2022-12-08T04:02:45.792Z,100
2022-12-08T04:04:00.192Z,100
2022-12-08T04:05:14.526Z,100
2022-12-08T04:06:28.802Z,100
2022-12-08T04:07:43.135Z,100
2022-12-08T04:08:57.556Z,100
2022-12-08T04:10:11.882Z,100
2022-12-08T04:11:25.263Z,100
2022-12-08T04:12:38.620Z,100
2022-12-08T04:13:52.947Z,100
2022-12-08T04:15:07.231Z,100
2022-12-08T04:16:21.501Z,100
2022-12-08T04:17:35.918Z,100
2022-12-08T04:18:50.230Z,100
2022-12-08T04:20:04.515Z,100
2022-12-08T04:21:18.803Z,100
2022-12-08T04:22:33.200Z,100
2022-12-08T04:23:47.534Z,100
2022-12-08T04:25:01.807Z,100
2022-12-08T04:26:16.093Z,100
2022-12-08T04:27:30.495Z,100
2022-12-08T04:28:44.826Z,100
2022-12-08T04:29:59.111Z,100
2022-12-08T04:31:13.385Z,100
2022-12-08T04:32:27.804Z,100
2022-12-08T04:33:42.125Z,100
2022-12-08T04:34:56.392Z,100
2022-12-08T04:36:10.680Z,100
2022-12-08T04:37:25.098Z,100
2022-12-08T04:38:39.417Z,100
2022-12-08T04:39:53.692Z,100
2022-12-08T04:42:22.383Z,100
2022-12-08T04:43:36.773Z,100
2022-12-08T04:44:50.160Z,100
2022-12-08T04:46:04.492Z,100
2022-12-08T04:47:18.000Z,100
2022-12-08T04:48:33.235Z,100
2022-12-08T04:49:46.581Z,100
2022-12-08T04:51:00.856Z,100
2022-12-08T04:52:15.272Z,100
2022-12-08T04:53:29.596Z,100
2022-12-08T04:54:43.883Z,100
2022-12-08T04:55:58.167Z,100
2022-12-08T04:57:12.559Z,100
2022-12-08T04:58:26.888Z,100
2022-12-08T04:59:41.168Z,100
2022-12-08T05:00:55.449Z,100
2022-12-08T05:02:09.855Z,100
2022-12-08T05:03:24.179Z,100
2022-12-08T05:05:52.733Z,100
2022-12-08T05:07:07.150Z,100
2022-12-08T05:08:21.471Z,100
2022-12-08T05:09:35.752Z,100
2022-12-08T05:10:50.035Z,100
2022-12-08T05:12:04.438Z,100
2022-12-08T05:13:18.764Z,100
2022-12-08T05:14:33.050Z,100
2022-12-08T05:15:47.339Z,100
2022-12-08T05:18:16.056Z,100
2022-12-08T05:19:30.339Z,100
2022-12-08T05:20:44.682Z,100
2022-12-08T05:21:59.089Z,100
2022-12-08T05:23:13.419Z,100
2022-12-08T05:24:26.819Z,100
2022-12-08T05:25:40.168Z,100
2022-12-08T05:26:54.500Z,100
2022-12-08T05:28:08.773Z,100
2022-12-08T05:29:23.058Z,100
2022-12-08T05:30:37.466Z,100
2022-12-08T05:31:51.784Z,100
2022-12-08T05:33:06.062Z,100
2022-12-08T05:34:20.341Z,100
2022-12-08T05:35:34.755Z,100
2022-12-08T05:36:49.077Z,100
2022-12-08T05:38:03.372Z,100
2022-12-08T05:39:17.652Z,100
2022-12-08T05:40:32.049Z,100
2022-12-08T05:41:46.373Z,100
2022-12-08T05:43:00.649Z,100
2022-12-08T05:44:14.931Z,100
2022-12-08T05:45:29.355Z,100
2022-12-08T05:46:43.667Z,100
2022-12-08T05:47:57.948Z,100
2022-12-08T05:49:12.271Z,100
2022-12-08T05:50:26.545Z,100
2022-12-08T05:51:40.962Z,100
2022-12-08T05:52:55.294Z,100
2022-12-08T05:54:09.560Z,100
2022-12-08T05:55:23.847Z,100
2022-12-08T05:56:38.306Z,100
2022-12-08T05:57:52.659Z,100
2022-12-08T06:00:20.281Z,100
2022-12-08T06:01:34.696Z,100
2022-12-08T06:02:49.019Z,100
2022-12-08T06:04:03.291Z,100
2022-12-08T06:05:17.581Z,100
2022-12-08T06:06:31.989Z,100
2022-12-08T06:07:46.316Z,100
2022-12-08T06:09:00.597Z,100
2022-12-08T06:10:14.866Z,100
2022-12-08T06:11:29.267Z,100
2022-12-08T06:12:43.602Z,100
2022-12-08T06:13:57.874Z,100
2022-12-08T06:15:12.164Z,100
2022-12-08T06:16:26.561Z,100
2022-12-08T06:17:40.887Z,100
2022-12-08T06:18:55.172Z,100
2022-12-08T06:20:09.464Z,100
2022-12-08T06:21:23.861Z,100
2022-12-08T06:22:38.184Z,100
2022-12-08T06:23:52.476Z,100
2022-12-08T06:25:06.740Z,100
2022-12-08T06:26:21.151Z,100
2022-12-08T06:27:35.482Z,100
2022-12-08T06:28:49.759Z,100
2022-12-08T06:30:04.107Z,100
2022-12-08T06:31:18.512Z,100
2022-12-08T06:32:32.846Z,100
2022-12-08T06:35:00.479Z,100
2022-12-08T06:36:14.886Z,100
2022-12-08T06:37:29.156Z,100
2022-12-08T06:38:43.443Z,100
2022-12-08T06:39:57.761Z,100
2022-12-08T06:41:12.048Z,100
2022-12-08T06:42:26.460Z,100
2022-12-08T06:43:40.707Z,100
2022-12-08T06:44:54.929Z,100
2022-12-08T06:46:09.143Z,100
2022-12-08T06:47:23.381Z,100
2022-12-08T06:49:51.913Z,100
2022-12-08T06:51:06.209Z,100
2022-12-08T06:52:20.531Z,100
2022-12-08T06:54:49.111Z,100
2022-12-08T06:56:03.422Z,100
2022-12-08T06:57:17.650Z,100
2022-12-08T06:58:31.884Z,100
2022-12-08T06:59:46.182Z,100
2022-12-08T07:01:00.416Z,100
2022-12-08T07:02:14.648Z,100
2022-12-08T07:03:28.883Z,100
2022-12-08T07:04:43.165Z,100
2022-12-08T07:05:57.464Z,100
2022-12-08T07:07:11.742Z,100
2022-12-08T07:08:25.076Z,100
2022-12-08T07:09:39.362Z,100
2022-12-08T07:10:53.656Z,100
2022-12-08T07:12:07.953Z,100
2022-12-08T07:13:22.238Z,100
2022-12-08T07:14:36.512Z,100
2022-12-08T07:15:49.815Z,100
2022-12-08T07:17:04.049Z,100
2022-12-08T07:18:18.279Z,100
2022-12-08T07:19:32.505Z,100
2022-12-08T07:20:46.740Z,100
2022-12-08T07:22:01.025Z,100
2022-12-08T07:23:15.275Z,100
2022-12-08T07:24:29.497Z,100
2022-12-08T07:25:43.732Z,100
2022-12-08T07:26:57.944Z,100
2022-12-08T07:28:12.246Z,100
2022-12-08T07:29:26.504Z,100
2022-12-08T07:30:40.723Z,100
2022-12-08T07:31:54.953Z,100
2022-12-08T07:33:09.176Z,100
2022-12-08T07:34:23.465Z,100
2022-12-08T07:35:37.726Z,100
2022-12-08T07:38:06.172Z,100
2022-12-08T07:39:20.404Z,100
2022-12-08T07:40:34.698Z,100
2022-12-08T07:41:48.942Z,100
2022-12-08T07:43:03.159Z,100
2022-12-08T07:44:17.402Z,100
2022-12-08T07:45:31.611Z,100
2022-12-08T07:46:45.988Z,100
2022-12-08T07:48:00.267Z,100
2022-12-08T07:49:13.590Z,100
2022-12-08T07:50:27.885Z,100
2022-12-08T07:51:42.181Z,100
2022-12-08T07:52:56.464Z,100
2022-12-08T07:54:09.764Z,100
2022-12-08T07:55:23.979Z,100
2022-12-08T07:56:38.277Z,100
2022-12-08T07:57:52.530Z,100
2022-12-08T07:59:06.753Z,100
2022-12-08T08:00:20.978Z,100
2022-12-08T08:01:35.216Z,100
2022-12-08T08:02:49.511Z,100
2022-12-08T08:04:03.758Z,100
2022-12-08T08:05:17.975Z,100
2022-12-08T08:06:32.211Z,100
2022-12-08T08:07:46.436Z,100
2022-12-08T08:09:00.730Z,100
2022-12-08T08:10:14.980Z,100
2022-12-08T08:11:29.202Z,100
2022-12-08T08:12:43.415Z,100
2022-12-08T08:13:57.656Z,100
2022-12-08T08:15:11.952Z,100
2022-12-08T08:16:26.189Z,100
2022-12-08T08:17:40.414Z,100
2022-12-08T08:18:54.645Z,100
2022-12-08T08:20:08.872Z,100
2022-12-08T08:21:23.181Z,100
2022-12-08T08:22:37.421Z,100
2022-12-08T08:23:51.639Z,100
2022-12-08T08:25:05.932Z,100
2022-12-08T08:26:19.276Z,100
2022-12-08T08:27:33.572Z,100
2022-12-08T08:28:47.854Z,100
2022-12-08T08:30:01.195Z,100
2022-12-08T08:31:15.489Z,100
2022-12-08T08:32:29.771Z,100
2022-12-08T08:33:43.128Z,100
2022-12-08T08:34:56.447Z,100
2022-12-08T08:36:10.730Z,100
2022-12-08T08:37:25.013Z,100
2022-12-08T08:38:38.323Z,100
2022-12-08T08:39:52.615Z,100
2022-12-08T08:41:06.859Z,100
2022-12-08T08:42:21.081Z,100
2022-12-08T08:43:35.317Z,100
2022-12-08T08:44:49.539Z,100
2022-12-08T08:46:03.833Z,100
2022-12-08T08:48:32.308Z,100
2022-12-08T08:49:46.528Z,100
2022-12-08T08:51:00.764Z,100
2022-12-08T08:52:15.059Z,100
2022-12-08T08:53:29.306Z,100
2022-12-08T08:54:43.537Z,100
2022-12-08T08:55:57.754Z,100
2022-12-08T08:57:11.974Z,100
2022-12-08T08:58:26.287Z,100
2022-12-08T08:59:40.521Z,100
2022-12-08T09:00:54.755Z,100
2022-12-08T09:02:08.967Z,100
2022-12-08T09:03:23.195Z,100
2022-12-08T09:04:37.498Z,100
2022-12-08T09:05:51.737Z,100
2022-12-08T09:08:20.191Z,100
2022-12-08T09:09:34.479Z,100
2022-12-08T09:10:48.784Z,100
2022-12-08T09:12:03.074Z,100
2022-12-08T09:13:16.375Z,100
2022-12-08T09:14:30.586Z,100
2022-12-08T09:15:44.886Z,100
2022-12-08T09:16:59.123Z,100
2022-12-08T09:18:13.350Z,100
2022-12-08T09:19:27.588Z,100
2022-12-08T09:20:41.812Z,100
2022-12-08T09:21:56.113Z,100
2022-12-08T09:23:10.350Z,100
2022-12-08T09:25:38.803Z,100
2022-12-08T09:26:53.039Z,100
2022-12-08T09:28:07.331Z,100
2022-12-08T09:29:21.575Z,100
2022-12-08T09:30:35.812Z,100
2022-12-08T09:31:50.029Z,100
2022-12-08T09:33:04.254Z,100
2022-12-08T09:34:18.564Z,100
2022-12-08T09:35:32.800Z,100
2022-12-08T09:36:47.018Z,100
2022-12-08T09:38:01.257Z,100
2022-12-08T09:39:15.473Z,100
2022-12-08T09:40:29.771Z,100
2022-12-08T09:41:44.019Z,100
2022-12-08T09:42:58.256Z,100
2022-12-08T09:44:12.524Z,100
2022-12-08T09:45:25.882Z,100
2022-12-08T09:46:40.153Z,100
2022-12-08T09:47:54.435Z,100
2022-12-08T09:49:08.732Z,100
2022-12-08T09:50:22.030Z,100
2022-12-08T09:51:36.271Z,100
2022-12-08T09:52:50.495Z,100
2022-12-08T09:54:04.712Z,100
2022-12-08T09:56:33.250Z,100
2022-12-08T09:57:47.494Z,100
2022-12-08T09:59:01.702Z,100
2022-12-08T10:00:15.936Z,100
2022-12-08T10:01:30.161Z,100
2022-12-08T10:02:44.476Z,100
2022-12-08T10:03:58.700Z,100
2022-12-08T10:05:12.929Z,100
2022-12-08T10:06:27.157Z,100
2022-12-08T10:07:41.386Z,100
2022-12-08T10:08:55.679Z,100
2022-12-08T10:10:09.921Z,100
2022-12-08T10:11:24.154Z,100
2022-12-08T10:12:38.389Z,100
2022-12-08T10:13:52.610Z,100
2022-12-08T10:15:06.917Z,100
2022-12-08T10:16:21.145Z,100
2022-12-08T10:17:35.374Z,100
2022-12-08T10:18:49.598Z,100
2022-12-08T10:20:03.826Z,100
2022-12-08T10:21:18.198Z,100
2022-12-08T10:22:32.473Z,100
2022-12-08T10:23:45.813Z,100
2022-12-08T10:25:00.092Z,100
2022-12-08T10:26:14.395Z,100
2022-12-08T10:28:42.967Z,100
2022-12-08T10:29:57.246Z,100
2022-12-08T10:31:11.524Z,100
2022-12-08T10:32:25.825Z,100
2022-12-08T10:33:40.103Z,100
2022-12-08T10:34:53.454Z,100
2022-12-08T10:36:06.803Z,100
2022-12-08T10:37:21.080Z,100
2022-12-08T10:38:35.372Z,100
2022-12-08T10:39:49.653Z,99.6
2022-12-08T10:41:03.930Z,99.7
2022-12-08T10:42:18.229Z,99.5
2022-12-08T10:43:32.523Z,99.6
2022-12-08T10:44:46.793Z,99.5
2022-12-08T10:46:01.085Z,99.6
2022-12-08T10:47:15.370Z,99.9
2022-12-08T10:48:29.661Z,100
2022-12-08T10:49:43.942Z,99.6
2022-12-08T10:50:58.230Z,99.5
2022-12-08T10:52:11.597Z,99.3
2022-12-08T10:53:25.885Z,99.4
2022-12-08T10:54:40.175Z,99.3
2022-12-08T10:55:54.447Z,99.3
2022-12-08T10:57:07.812Z,99.3
2022-12-08T10:59:36.401Z,99.6
2022-12-08T11:00:49.716Z,99.3
2022-12-08T11:02:04.004Z,99.2
2022-12-08T11:03:18.306Z,99.3
2022-12-08T11:05:46.882Z,99.5
2022-12-08T11:07:01.164Z,99.5
2022-12-08T11:08:15.435Z,99.3
2022-12-08T11:09:29.739Z,98.9
2022-12-08T11:10:44.033Z,98.8
2022-12-08T11:11:57.375Z,98.9
2022-12-08T11:13:11.657Z,98.8
2022-12-08T11:14:25.973Z,99.1
2022-12-08T11:16:54.530Z,99.2
2022-12-08T11:18:07.875Z,98.8
2022-12-08T11:20:36.465Z,98.7
2022-12-08T11:21:49.811Z,99
2022-12-08T11:23:03.147Z,98.8
2022-12-08T11:24:17.435Z,98.8
2022-12-08T11:25:31.729Z,99
2022-12-08T11:26:45.067Z,99
2022-12-08T11:27:59.369Z,98.4
2022-12-08T11:29:13.652Z,98.2
2022-12-08T11:30:28.022Z,98.3
2022-12-08T11:32:56.479Z,98.5
2022-12-08T11:34:10.777Z,98.7
2022-12-08T11:35:25.023Z,98.6
2022-12-08T11:36:39.245Z,98.1
2022-12-08T11:37:53.467Z,98.2
2022-12-08T11:40:22.003Z,97.5
2022-12-08T11:41:36.250Z,97.8
2022-12-08T11:42:50.479Z,98
2022-12-08T11:44:04.692Z,98.2
2022-12-08T11:45:18.930Z,98.2
2022-12-08T11:46:33.233Z,98
2022-12-08T11:47:47.469Z,98.3
2022-12-08T11:49:01.685Z,97.9
2022-12-08T11:51:30.262Z,97.5
2022-12-08T11:52:44.565Z,97.9
2022-12-08T11:53:58.811Z,97.9
2022-12-08T11:55:13.035Z,97.5
2022-12-08T11:56:27.257Z,97.3
2022-12-08T11:57:41.488Z,97.2
2022-12-08T11:58:55.784Z,97.8
2022-12-08T12:02:38.495Z,97.5
2022-12-08T12:03:52.712Z,97.7
2022-12-08T12:05:07.025Z,97.8
2022-12-08T12:06:21.250Z,97.7
2022-12-08T12:07:35.490Z,97.2
2022-12-08T12:08:49.704Z,97.6
2022-12-08T12:10:03.945Z,97.7
2022-12-08T12:11:18.238Z,97.9
2022-12-08T12:12:32.482Z,98.1
2022-12-08T12:13:46.707Z,98.2
2022-12-08T12:15:00.933Z,97.7
2022-12-08T12:16:15.167Z,97.5
2022-12-08T12:17:29.466Z,98
2022-12-08T12:18:43.696Z,97.5
2022-12-08T12:19:57.922Z,97.2
2022-12-08T12:21:12.154Z,96.7
2022-12-08T12:22:26.391Z,96.4
2022-12-08T12:24:54.934Z,97.1
2022-12-08T12:26:09.148Z,96.9
2022-12-08T12:27:23.378Z,97
2022-12-08T12:28:37.613Z,97.4
2022-12-08T12:29:51.903Z,97.6
2022-12-08T12:31:06.145Z,97.5
2022-12-08T12:32:20.379Z,97.5
2022-12-08T12:33:34.606Z,97.5
2022-12-08T12:34:48.828Z,96.7
2022-12-08T12:36:03.184Z,96.1
2022-12-08T12:37:17.469Z,96
2022-12-08T12:39:45.096Z,96.4
2022-12-08T12:40:59.384Z,96.4
2022-12-08T12:42:13.680Z,96.2
2022-12-08T12:43:27.020Z,96.5
2022-12-08T12:44:40.364Z,96.7
2022-12-08T12:45:54.644Z,96.7
2022-12-08T12:47:07.982Z,97.2
2022-12-08T12:48:21.325Z,97
2022-12-08T12:49:35.609Z,96.7
2022-12-08T12:50:49.901Z,96.7
2022-12-08T12:52:03.180Z,97
2022-12-08T12:53:17.486Z,97.1
2022-12-08T12:54:31.735Z,97.5
2022-12-08T12:55:45.954Z,97
2022-12-08T12:57:00.174Z,96.5
2022-12-08T12:58:14.404Z,96.1
2022-12-08T12:59:28.717Z,96.2
2022-12-08T13:00:42.959Z,96
2022-12-08T13:01:57.175Z,96.4
2022-12-08T13:03:11.398Z,96.6
2022-12-08T13:04:25.622Z,97.2
2022-12-08T13:05:39.933Z,97
2022-12-08T13:06:54.185Z,97.3
2022-12-08T13:08:08.396Z,97.3
2022-12-08T13:09:22.622Z,97
2022-12-08T13:10:36.853Z,96.8
2022-12-08T13:11:51.158Z,96.4
2022-12-08T13:13:05.393Z,96.2
2022-12-08T13:14:19.624Z,96
2022-12-08T13:15:33.845Z,95.9
2022-12-08T13:16:48.080Z,95.6
2022-12-08T13:18:02.369Z,95.9
2022-12-08T13:19:16.611Z,96.3
2022-12-08T13:20:30.839Z,96.2
2022-12-08T13:21:45.080Z,96.3
2022-12-08T13:22:59.356Z,96.2
2022-12-08T13:24:13.654Z,96.5
2022-12-08T13:25:27.952Z,96.5
2022-12-08T13:26:41.300Z,96.6
2022-12-08T13:27:54.629Z,96.6
2022-12-08T13:29:08.909Z,95.8
2022-12-08T13:30:22.197Z,96.1
2022-12-08T13:31:36.424Z,96.6
2022-12-08T13:32:50.728Z,96.4
2022-12-08T13:34:04.968Z,96.7
2022-12-08T13:35:19.200Z,95.7
2022-12-08T13:36:33.436Z,96
2022-12-08T13:37:47.655Z,96.5
2022-12-08T13:39:01.956Z,96.9
2022-12-08T13:40:16.189Z,97.4
2022-12-08T13:41:30.431Z,97.5
2022-12-08T13:42:44.661Z,97.6
2022-12-08T13:43:58.875Z,97.9
2022-12-08T13:45:13.177Z,97.7
2022-12-08T13:46:27.415Z,97.5
2022-12-08T13:47:41.654Z,97.6
2022-12-08T13:48:55.882Z,97.4
2022-12-08T13:50:10.109Z,97.2
2022-12-08T13:51:24.403Z,97.3
2022-12-08T13:52:38.649Z,97.1
2022-12-08T13:53:52.860Z,97.3
2022-12-08T13:55:07.096Z,97.5
2022-12-08T13:56:21.334Z,97.7
2022-12-08T13:57:35.630Z,97.9
2022-12-08T13:58:49.871Z,97.9
2022-12-08T14:00:04.100Z,98
2022-12-08T14:01:18.381Z,98.1
2022-12-08T14:02:31.725Z,97.7
2022-12-08T14:03:46.005Z,97.9
2022-12-08T14:07:27.820Z,97.4
2022-12-08T14:08:42.076Z,97.3
2022-12-08T14:09:56.416Z,97.3
2022-12-08T14:11:10.655Z,97.3
2022-12-08T14:12:24.869Z,97.4
2022-12-08T14:16:07.637Z,98.1
2022-12-08T14:17:21.867Z,98.2
2022-12-08T14:18:36.103Z,98
2022-12-08T14:19:50.397Z,97.9
2022-12-08T14:21:04.631Z,97.8
2022-12-08T14:22:18.856Z,97.7
2022-12-08T14:23:33.091Z,98.1
2022-12-08T14:24:47.325Z,98.1
2022-12-08T14:26:01.621Z,98
2022-12-08T14:27:15.853Z,98.2
2022-12-08T14:29:44.302Z,98.6
2022-12-08T14:30:58.534Z,98.5
2022-12-08T14:32:12.837Z,98.4
2022-12-08T14:34:41.313Z,98.3
2022-12-08T14:37:09.766Z,98.2
2022-12-08T14:38:24.066Z,98.2
2022-12-08T14:39:38.299Z,98.2
2022-12-08T14:40:52.535Z,98.4
2022-12-08T14:43:20.975Z,98.4
2022-12-08T14:44:35.287Z,98.3
2022-12-08T14:45:49.533Z,98.1
2022-12-08T14:47:03.749Z,98
2022-12-08T14:48:17.978Z,98.1
2022-12-08T14:49:32.200Z,98.3
2022-12-08T14:50:46.514Z,98.4
2022-12-08T14:52:00.755Z,98.4
2022-12-08T14:53:14.967Z,98.5
2022-12-08T14:54:29.202Z,98.7
2022-12-08T14:55:43.489Z,99.3
2022-12-08T14:56:57.778Z,99
2022-12-08T14:58:12.064Z,98.8
2022-12-08T14:59:25.362Z,98.8
2022-12-08T15:00:39.582Z,98.6
2022-12-08T15:01:53.899Z,98.2
2022-12-08T15:03:08.143Z,98.6
2022-12-08T15:04:22.352Z,98.7
2022-12-08T15:05:36.589Z,98.7
2022-12-08T15:08:05.113Z,99
2022-12-08T15:09:19.347Z,98.8
2022-12-08T15:10:33.703Z,98.6
2022-12-08T15:11:47.935Z,98.8
2022-12-08T15:13:02.157Z,98.7
2022-12-08T15:14:16.449Z,98.8
2022-12-08T15:15:30.690Z,98.8
2022-12-08T15:19:13.374Z,98.8
2022-12-08T15:20:27.680Z,98.8
2022-12-08T15:21:41.917Z,98.9
2022-12-08T15:22:56.000Z,99.1
2022-12-08T15:25:24.608Z,98.5
2022-12-08T15:26:38.905Z,98.7
2022-12-08T15:27:53.144Z,98.9
2022-12-08T15:29:07.366Z,99.1
2022-12-08T15:30:21.606Z,99.1
2022-12-08T15:31:35.826Z,99.1
2022-12-08T15:32:50.129Z,99.3
2022-12-08T15:34:04.363Z,99.3
2022-12-08T15:35:18.592Z,99.5
2022-12-08T15:36:32.818Z,99.7
2022-12-08T15:37:47.037Z,99.8
2022-12-08T15:39:01.354Z,100
2022-12-08T15:40:15.579Z,100
2022-12-08T15:41:29.809Z,100
2022-12-08T15:42:44.041Z,100
2022-12-08T15:43:58.271Z,100
2022-12-08T15:45:12.563Z,100
2022-12-08T15:46:26.802Z,100
2022-12-08T15:47:41.035Z,100
2022-12-08T15:48:55.265Z,100
2022-12-08T15:50:09.551Z,100
2022-12-08T15:51:23.944Z,100
2022-12-08T15:52:38.200Z,100
2022-12-08T15:53:52.484Z,100
2022-12-08T15:55:06.696Z,100
2022-12-08T15:56:21.045Z,100
2022-12-08T15:57:35.456Z,100
2022-12-08T15:58:49.741Z,100
2022-12-08T16:00:03.043Z,100
2022-12-08T16:01:17.268Z,100
2022-12-08T16:02:31.560Z,100
2022-12-08T16:03:45.800Z,100
2022-12-08T16:06:14.365Z,100
2022-12-08T16:07:28.646Z,100
2022-12-08T16:08:43.047Z,100
2022-12-08T16:09:57.379Z,100
2022-12-08T16:11:11.668Z,100
2022-12-08T16:12:25.949Z,100
2022-12-08T16:13:40.344Z,100
2022-12-08T16:14:54.667Z,100
2022-12-08T16:16:08.948Z,100
2022-12-08T16:18:37.633Z,100
2022-12-08T16:19:51.975Z,100
2022-12-08T16:21:06.240Z,100
2022-12-08T16:22:20.535Z,100
2022-12-08T16:23:34.930Z,100
2022-12-08T16:24:49.252Z,100
2022-12-08T16:26:03.547Z,100
2022-12-08T16:27:17.826Z,100
2022-12-08T16:28:32.235Z,100
2022-12-08T16:29:46.553Z,100
2022-12-08T16:31:00.883Z,100
2022-12-08T16:32:14.300Z,100
2022-12-08T16:33:28.644Z,100
2022-12-08T16:34:41.983Z,100
2022-12-08T16:35:56.265Z,100
2022-12-08T16:37:10.666Z,100
2022-12-08T16:38:24.999Z,100
2022-12-08T16:39:39.279Z,100
2022-12-08T16:40:53.556Z,100
2022-12-08T16:42:07.967Z,100
2022-12-08T16:43:22.300Z,100
2022-12-08T16:44:36.576Z,100
2022-12-08T16:45:50.858Z,100
2022-12-08T16:47:05.268Z,100
2022-12-08T16:48:19.579Z,100
2022-12-08T16:49:33.871Z,100
2022-12-08T16:50:48.138Z,100
2022-12-08T16:52:02.556Z,100
2022-12-08T16:53:16.868Z,100
2022-12-08T16:54:31.166Z,100
2022-12-08T16:55:45.447Z,100
2022-12-08T16:56:59.845Z,100
2022-12-08T16:58:14.166Z,100
2022-12-08T16:59:28.457Z,100
2022-12-08T17:00:42.740Z,100
2022-12-08T17:01:57.136Z,100
2022-12-08T17:03:11.460Z,100
2022-12-08T17:04:25.750Z,100
2022-12-08T17:05:40.075Z,100
2022-12-08T17:06:54.496Z,100
2022-12-08T17:08:08.829Z,100
2022-12-08T17:09:22.177Z,100
2022-12-08T17:10:36.467Z,100
2022-12-08T17:11:50.857Z,100
2022-12-08T17:13:05.190Z,100
2022-12-08T17:14:19.468Z,100
2022-12-08T17:15:33.753Z,100
2022-12-08T17:16:48.166Z,100
2022-12-08T17:18:02.474Z,100
2022-12-08T17:19:16.764Z,100
2022-12-08T17:20:31.042Z,100
2022-12-08T17:21:45.443Z,100
2022-12-08T17:22:59.783Z,100
2022-12-08T17:24:14.050Z,100
2022-12-08T17:25:28.337Z,100
2022-12-08T17:26:42.736Z,100
2022-12-08T17:27:57.071Z,100
2022-12-08T17:29:11.354Z,100
2022-12-08T17:30:25.629Z,100
2022-12-08T17:31:40.031Z,100
2022-12-08T17:32:54.371Z,100
2022-12-08T17:34:08.642Z,100
2022-12-08T17:35:22.932Z,100
2022-12-08T17:36:37.337Z,100
2022-12-08T17:37:51.649Z,100
2022-12-08T17:39:05.944Z,100
2022-12-08T17:40:20.271Z,100
2022-12-08T17:41:34.682Z,100
2022-12-08T17:42:49.029Z,100
2022-12-08T17:44:02.363Z,100
2022-12-08T17:45:16.651Z,100
2022-12-08T17:46:31.064Z,100
2022-12-08T17:47:45.377Z,100
2022-12-08T17:48:59.664Z,100
2022-12-08T17:50:13.941Z,100
2022-12-08T17:51:28.348Z,100
2022-12-08T17:52:42.675Z,100